Time;durP1;ratioP1;P1;durP2;ratioP2;P2;SDS_P1;SDS_P2;PMS_P1;PMS_P2;Temp;Humidity;BMP_temperature;BMP_pressure;BME280_temperature;BME280_humidity;BME280_pressure;Samples;Min_cycle;Max_cycle;Signal;HPM_P1;HPM_P2
2024/03/03 00:01:56;;;;;;;35.93;23.77;;;;;;;13.78;54.75;97102.25;7030833;28;20197;-79
2024/03/03 00:05:19;;;;;;;34.50;23.90;;;;;;;14.09;53.58;97093.94;7029989;28;20211;-78
2024/03/03 00:08:40;;;;;;;39.13;24.60;;;;;;;14.00;53.71;97097.44;7029395;28;20226;-79
2024/03/03 00:12:02;;;;;;;35.87;23.33;;;;;;;14.15;53.33;97102.91;7023330;28;20232;-79
2024/03/03 00:15:23;;;;;;;33.97;23.20;;;;;;;14.26;52.99;97091.84;7030902;28;20213;-79
2024/03/03 00:18:45;;;;;;;38.10;24.83;;;;;;;14.08;53.20;97105.03;7029369;28;20369;-79
2024/03/03 00:22:08;;;;;;;40.67;24.67;;;;;;;13.90;53.35;97102.84;7030462;28;20288;-79
2024/03/03 00:25:29;;;;;;;37.03;24.63;;;;;;;13.51;54.23;97088.91;7029399;28;20206;-79
2024/03/03 00:28:51;;;;;;;39.43;24.60;;;;;;;13.03;56.01;97047.81;7029449;28;20262;-79
2024/03/03 00:32:12;;;;;;;38.90;25.37;;;;;;;13.46;54.84;97080.75;7028414;28;20336;-79
2024/03/03 00:35:33;;;;;;;37.83;23.60;;;;;;;13.64;54.11;97066.75;7001503;28;20337;-79
2024/03/03 00:38:56;;;;;;;35.40;22.13;;;;;;;13.37;53.01;97043.63;7001232;28;20701;-79
2024/03/03 00:42:18;;;;;;;36.03;23.80;;;;;;;12.67;54.49;97075.69;7005820;28;20319;-79
2024/03/03 00:45:39;;;;;;;37.13;22.90;;;;;;;12.50;55.60;97065.03;7029457;28;20306;-79
2024/03/03 00:49:01;;;;;;;41.10;25.17;;;;;;;12.17;56.87;97067.19;7029200;28;20382;-79
2024/03/03 00:52:22;;;;;;;37.60;25.77;;;;;;;12.04;56.84;97067.63;7005429;28;20231;-78
2024/03/03 00:55:47;;;;;;;39.73;24.50;;;;;;;11.91;57.74;97068.03;7001437;28;20693;-78
2024/03/03 00:59:09;;;;;;;41.57;24.90;;;;;;;11.88;57.94;97049.66;7000644;28;20240;-78
2024/03/03 01:02:31;;;;;;;39.90;24.97;;;;;;;12.19;56.80;97059.66;7001234;28;20570;-78
2024/03/03 01:05:52;;;;;;;37.13;24.10;;;;;;;11.96;57.72;97049.16;7022213;28;20240;-78
2024/03/03 01:09:14;;;;;;;43.73;24.23;;;;;;;11.98;57.32;97058.66;7028638;28;20319;-79
2024/03/03 01:12:37;;;;;;;35.23;21.53;;;;;;;12.25;56.43;97053.22;7029349;28;20315;-79
2024/03/03 01:15:58;;;;;;;31.93;22.00;;;;;;;12.03;55.64;97045.19;7028575;28;20723;-79
2024/03/03 01:19:20;;;;;;;34.60;21.83;;;;;;;11.85;55.95;97047.44;7027892;28;20726;-79
2024/03/03 01:22:41;;;;;;;33.17;20.07;;;;;;;11.88;55.61;97042.38;7028799;28;20197;-78
2024/03/03 01:26:03;;;;;;;35.63;21.83;;;;;;;11.83;55.69;97047.72;7028134;28;20291;-78
2024/03/03 01:29:26;;;;;;;36.30;21.80;;;;;;;11.30;57.20;97028.78;7027558;28;20263;-78
2024/03/03 01:32:47;;;;;;;37.33;21.73;;;;;;;11.58;56.89;97020.44;7027294;28;20312;-79
2024/03/03 01:36:11;;;;;;;37.63;21.90;;;;;;;11.37;57.24;97020.47;7028221;28;20232;-79
2024/03/03 01:39:35;;;;;;;37.77;22.50;;;;;;;11.49;57.51;97011.16;7027574;28;20580;-78
2024/03/03 01:42:57;;;;;;;36.53;21.57;;;;;;;11.78;56.63;97015.28;7027864;28;20197;-78
2024/03/03 01:46:21;;;;;;;32.93;21.10;;;;;;;11.75;55.72;97010.38;7027669;28;20664;-79
2024/03/03 01:49:44;;;;;;;34.63;21.10;;;;;;;11.40;56.08;97012.69;7027712;28;20767;-78
2024/03/03 01:53:07;;;;;;;35.40;21.67;;;;;;;11.28;56.64;97014.69;7027862;28;20224;-78
2024/03/03 01:56:30;;;;;;;40.77;22.13;;;;;;;10.71;57.66;97023.41;7027640;28;20371;-78
2024/03/03 01:59:52;;;;;;;40.37;22.47;;;;;;;10.73;58.42;97022.09;7027031;28;20320;-78
2024/03/03 02:03:15;;;;;;;39.03;23.50;;;;;;;10.62;59.61;97027.63;7027064;28;20198;-78
2024/03/03 02:06:37;;;;;;;40.97;23.60;;;;;;;11.15;58.23;97017.78;7018597;28;20316;-78
2024/03/03 02:09:59;;;;;;;40.17;24.43;;;;;;;10.89;58.37;96983.50;6997025;28;20300;-78
2024/03/03 02:13:20;;;;;;;43.87;23.73;;;;;;;10.90;58.65;97005.88;7026318;28;20267;-78
2024/03/03 02:16:42;;;;;;;39.33;22.33;;;;;;;10.84;58.54;97014.97;7026768;28;20201;-78
2024/03/03 02:20:08;;;;;;;43.30;24.57;;;;;;;10.98;58.68;97002.75;7025966;28;20295;-79
2024/03/03 02:23:31;;;;;;;42.07;23.67;;;;;;;10.81;58.97;97002.00;7026886;28;20216;-78
2024/03/03 02:26:53;;;;;;;42.30;22.83;;;;;;;11.15;58.21;97000.81;7010829;28;20336;-78
2024/03/03 02:30:14;;;;;;;34.03;21.20;;;;;;;11.28;57.13;97003.91;7020844;28;20255;-79
2024/03/03 02:33:36;;;;;;;37.87;22.37;;;;;;;11.05;56.91;97008.78;7026342;28;20636;-78
2024/03/03 02:36:58;;;;;;;37.10;21.57;;;;;;;10.90;57.27;97003.19;7027167;28;20270;-78
2024/03/03 02:40:21;;;;;;;34.23;21.53;;;;;;;10.81;58.17;97010.09;7026975;28;20746;-78
2024/03/03 02:43:42;;;;;;;41.97;23.17;;;;;;;10.59;58.48;96999.28;7026612;28;20212;-79
2024/03/03 02:47:04;;;;;;;37.83;22.60;;;;;;;10.19;60.16;97012.16;7002800;28;20316;-78
2024/03/03 02:50:25;;;;;;;41.60;24.17;;;;;;;10.52;59.73;97008.59;6998184;28;20347;-79
2024/03/03 02:53:47;;;;;;;46.07;25.43;;;;;;;10.46;59.89;96990.75;6998373;28;20313;-78
2024/03/03 02:57:10;;;;;;;35.63;22.37;;;;;;;10.64;59.23;96985.06;6998623;28;20312;-78
2024/03/03 03:00:33;;;;;;;44.60;26.17;;;;;;;10.52;60.39;96989.75;7006403;28;20283;-79
2024/03/03 03:03:54;;;;;;;47.77;25.50;;;;;;;10.76;59.19;96997.38;7026846;28;20209;-78
2024/03/03 03:07:16;;;;;;;43.20;25.47;;;;;;;10.82;58.90;96995.53;7026382;28;20315;-78
2024/03/03 03:10:37;;;;;;;46.23;25.37;;;;;;;10.82;58.85;97000.94;7024574;28;20704;-79
2024/03/03 03:14:00;;;;;;;39.67;24.60;;;;;;;10.92;58.52;97006.47;7026319;28;20655;-78
2024/03/03 03:17:21;;;;;;;40.20;24.23;;;;;;;10.88;58.36;97006.16;7030856;28;20689;-79
2024/03/03 03:20:43;;;;;;;42.30;25.23;;;;;;;10.49;59.03;97003.69;7031114;28;20253;-79
2024/03/03 03:24:05;;;;;;;43.40;25.07;;;;;;;10.38;59.55;97015.38;7032143;28;20334;-78
2024/03/03 03:27:26;;;;;;;43.80;25.03;;;;;;;10.43;60.05;97020.84;7031909;28;20312;-78
2024/03/03 03:30:49;;;;;;;49.57;25.73;;;;;;;10.21;59.82;97026.19;7023417;28;20353;-77
2024/03/03 03:34:11;;;;;;;39.07;22.37;;;;;;;10.36;59.44;96977.13;7031091;28;20374;-78
2024/03/03 03:37:32;;;;;;;41.70;24.13;;;;;;;10.90;58.37;97022.06;7031685;28;20307;-78
2024/03/03 03:40:54;;;;;;;41.13;24.20;;;;;;;10.57;58.41;97006.00;7030738;28;20208;-78
2024/03/03 03:44:18;;;;;;;42.93;24.03;;;;;;;10.84;58.00;97017.66;7031645;28;20295;-78
2024/03/03 03:47:41;;;;;;;38.63;22.97;;;;;;;10.96;57.30;97011.09;7024703;28;20589;-79
2024/03/03 03:51:03;;;;;;;41.10;22.93;;;;;;;10.64;56.95;97012.00;7030637;28;20296;-78
2024/03/03 03:54:25;;;;;;;47.93;24.30;;;;;;;9.84;58.00;97025.00;7030266;28;20320;-78
2024/03/03 03:57:47;;;;;;;42.33;22.93;;;;;;;9.98;58.77;97026.31;7030810;28;20252;-78
2024/03/03 04:01:08;;;;;;;43.80;23.80;;;;;;;10.04;58.78;96998.44;7030595;28;20238;-78
2024/03/03 04:04:34;;;;;;;34.47;22.83;;;;;;;10.27;58.10;97021.72;7028916;28;20295;-78
2024/03/03 04:07:56;;;;;;;39.63;22.83;;;;;;;9.80;58.40;96985.38;7030511;28;20324;-78
2024/03/03 04:11:17;;;;;;;43.40;24.17;;;;;;;10.23;57.62;97010.63;7029772;28;20347;-79
2024/03/03 04:14:39;;;;;;;41.10;23.07;;;;;;;10.09;57.51;97020.06;7030311;28;20206;-78
2024/03/03 04:18:00;;;;;;;39.50;22.43;;;;;;;10.21;57.13;97020.81;7030022;28;20366;-79
2024/03/03 04:21:23;;;;;;;44.13;23.63;;;;;;;9.99;57.40;97017.19;7029743;28;20240;-79
2024/03/03 04:24:45;;;;;;;41.97;23.10;;;;;;;9.88;58.04;97023.47;7030073;28;20235;-79
2024/03/03 04:28:07;;;;;;;43.10;23.67;;;;;;;9.96;58.32;97014.16;7027903;28;20311;-78
2024/03/03 04:31:28;;;;;;;43.07;25.17;;;;;;;9.56;57.76;96928.22;7029437;28;20701;-79
2024/03/03 04:34:50;;;;;;;41.37;24.03;;;;;;;9.99;57.95;97009.09;7028718;28;20689;-79
2024/03/03 04:38:13;;;;;;;41.10;22.97;;;;;;;9.73;58.55;97014.31;7028543;28;20227;-78
2024/03/03 04:41:34;;;;;;;42.30;23.57;;;;;;;9.80;58.52;97010.41;7028954;28;20205;-79
2024/03/03 04:44:56;;;;;;;47.10;25.87;;;;;;;9.77;58.46;97010.06;7026876;28;20295;-78
2024/03/03 04:48:17;;;;;;;42.40;23.93;;;;;;;9.52;58.52;97002.38;7027840;28;20228;-78
2024/03/03 04:51:39;;;;;;;46.37;24.77;;;;;;;8.99;59.55;96960.78;7028465;28;20234;-78
2024/03/03 04:55:02;;;;;;;44.23;23.83;;;;;;;9.51;59.30;96973.84;7029039;28;20205;-81
2024/03/03 04:58:24;;;;;;;46.77;28.57;;;;;;;9.67;58.61;96986.50;7027876;28;20228;-81
2024/03/03 05:01:45;;;;;;;47.63;27.10;;;;;;;9.65;59.17;96994.03;7025934;28;20757;-79
2024/03/03 05:05:07;;;;;;;48.40;24.63;;;;;;;9.21;59.30;96977.88;7027629;28;20327;-79
2024/03/03 05:08:29;;;;;;;50.13;26.07;;;;;;;8.54;61.77;97010.88;7027596;28;20688;-81
2024/03/03 05:11:52;;;;;;;48.80;24.97;;;;;;;8.77;61.28;97007.38;7027772;28;20450;-79
2024/03/03 05:15:13;;;;;;;51.73;25.67;;;;;;;8.91;60.68;96993.41;7027887;28;20233;-78
2024/03/03 05:18:35;;;;;;;47.13;25.90;;;;;;;9.13;59.62;96982.81;7021544;28;20580;-79
2024/03/03 05:21:56;;;;;;;50.43;25.10;;;;;;;8.88;59.48;96987.69;7000252;28;20612;-79
2024/03/03 05:25:18;;;;;;;49.93;25.37;;;;;;;8.63;59.87;96939.66;6999883;28;20205;-79
2024/03/03 05:28:41;;;;;;;48.23;25.33;;;;;;;8.90;60.01;97015.16;7002641;28;20226;-80
2024/03/03 05:32:02;;;;;;;47.30;25.57;;;;;;;9.03;59.96;97015.72;7026212;28;20267;-79
2024/03/03 05:35:24;;;;;;;44.93;24.70;;;;;;;8.90;59.32;96993.66;7027186;28;20207;-81
2024/03/03 05:38:45;;;;;;;44.47;24.17;;;;;;;8.90;59.65;97015.16;7027381;28;20221;-78
2024/03/03 05:42:07;;;;;;;46.53;24.10;;;;;;;8.93;59.59;97024.34;7003482;28;20684;-79
2024/03/03 05:45:30;;;;;;;44.80;24.00;;;;;;;8.73;60.04;97007.00;6998621;28;20705;-78
2024/03/03 05:48:51;;;;;;;50.23;24.17;;;;;;;9.03;60.04;97037.22;6997515;28;20777;-79
2024/03/03 05:52:13;;;;;;;46.40;24.23;;;;;;;8.61;60.02;97038.44;6999256;28;20360;-79
2024/03/03 05:55:36;;;;;;;44.43;24.30;;;;;;;8.53;60.65;97030.75;6999575;28;20765;-80
2024/03/03 05:58:57;;;;;;;45.70;25.67;;;;;;;8.78;59.94;97027.81;7001377;28;20225;-82
2024/03/03 06:02:21;;;;;;;42.70;23.20;;;;;;;8.83;58.35;97014.47;7001685;28;20735;-80
2024/03/03 06:05:43;;;;;;;49.23;24.43;;;;;;;8.37;60.25;97014.53;7016626;28;20225;-80
2024/03/03 06:09:08;;;;;;;44.17;24.10;;;;;;;8.38;59.88;96965.94;7013647;28;20233;-80
2024/03/03 06:12:30;;;;;;;44.17;24.13;;;;;;;8.83;59.82;97039.47;7026893;28;20220;-80
2024/03/03 06:15:51;;;;;;;44.87;24.40;;;;;;;8.69;60.44;97038.09;7026869;28;20305;-80
2024/03/03 06:19:14;;;;;;;44.53;23.07;;;;;;;8.82;59.54;97026.25;7016745;28;20714;-79
2024/03/03 06:22:35;;;;;;;39.10;20.77;;;;;;;8.87;58.27;97027.19;7028523;28;20208;-80
2024/03/03 06:25:57;;;;;;;37.73;22.10;;;;;;;8.95;58.20;97032.19;7028601;28;20775;-80
2024/03/03 06:29:18;;;;;;;40.03;21.53;;;;;;;8.88;58.19;97026.13;7027693;28;20318;-80
2024/03/03 06:32:40;;;;;;;38.53;21.67;;;;;;;8.54;58.09;97023.53;7028485;28;20224;-80
2024/03/03 06:36:03;;;;;;;38.10;21.80;;;;;;;8.58;58.23;97014.75;7027307;28;20205;-80
2024/03/03 06:39:25;;;;;;;43.80;22.63;;;;;;;7.78;59.98;96975.28;7026122;28;20225;-80
2024/03/03 06:42:46;;;;;;;37.87;21.90;;;;;;;8.39;59.53;96970.28;7026946;28;20302;-80
2024/03/03 06:46:09;;;;;;;42.63;23.67;;;;;;;8.81;59.50;97011.19;7026977;28;20295;-80
2024/03/03 06:49:30;;;;;;;44.63;24.07;;;;;;;8.93;59.01;96998.53;7027841;28;20220;-80
2024/03/03 06:52:53;;;;;;;39.03;21.77;;;;;;;8.82;58.85;97000.22;7027428;28;20232;-79
2024/03/03 06:56:15;;;;;;;36.33;21.43;;;;;;;8.57;59.45;97025.72;7027055;28;20247;-80
2024/03/03 07:00:19;;;;;;;41.80;21.83;;;;;;;8.69;59.99;97046.16;7020947;28;20212;-81
2024/03/03 07:25:23;;;;;;;28.27;18.60;;;;;;;12.46;53.85;97009.84;6969397;28;20271;-81
2024/03/03 07:28:44;;;;;;;32.40;22.67;;;;;;;12.85;52.02;97002.25;6970402;28;20320;-81
2024/03/03 07:32:06;;;;;;;26.67;16.67;;;;;;;13.49;50.26;97014.44;6967681;28;20783;-81
2024/03/03 07:35:28;;;;;;;27.73;18.80;;;;;;;13.24;51.46;97006.25;6986609;28;20302;-79
2024/03/03 07:38:50;;;;;;;23.13;17.30;;;;;;;12.91;52.35;96990.38;6994753;28;20706;-79
2024/03/03 07:42:12;;;;;;;23.87;17.93;;;;;;;14.15;50.95;96995.31;6996278;28;20338;-79
2024/03/03 07:45:33;;;;;;;23.57;16.87;;;;;;;14.63;49.43;97002.09;6994995;28;20257;-79
2024/03/03 07:48:56;;;;;;;27.83;20.83;;;;;;;15.24;47.92;96993.47;6992278;28;20829;-78
2024/03/03 07:52:18;;;;;;;22.23;16.13;;;;;;;15.21;47.86;96983.16;7020012;28;20566;-79
2024/03/03 07:55:40;;;;;;;19.30;15.23;;;;;;;15.82;46.09;96997.25;7026129;28;20225;-79
2024/03/03 07:59:05;;;;;;;21.93;16.13;;;;;;;15.72;45.59;96986.44;7024963;28;21097;-78
2024/03/03 08:02:26;;;;;;;23.93;18.03;;;;;;;15.68;46.13;96974.53;7027050;28;20669;-78
2024/03/03 08:05:48;;;;;;;21.80;15.27;;;;;;;16.21;45.18;96987.19;7038811;28;20284;-78
2024/03/03 08:09:09;;;;;;;18.77;15.23;;;;;;;15.61;45.73;96990.31;7043501;28;20230;-78
2024/03/03 08:12:32;;;;;;;18.77;14.93;;;;;;;15.91;45.41;96981.97;7044936;28;20260;-79
2024/03/03 08:15:54;;;;;;;17.60;14.07;;;;;;;15.99;44.62;96989.53;7046824;28;20228;-78
2024/03/03 08:19:15;;;;;;;18.03;13.40;;;;;;;16.59;43.43;96962.66;7044157;28;20828;-78
2024/03/03 08:22:38;;;;;;;20.37;15.07;;;;;;;15.42;44.88;96982.03;7033915;28;20572;-79
2024/03/03 08:26:00;;;;;;;17.40;13.20;;;;;;;16.58;43.99;96974.63;7028827;28;20270;-79
2024/03/03 08:29:22;;;;;;;17.03;13.40;;;;;;;16.73;43.29;96970.94;7026750;28;20224;-79
2024/03/03 08:32:44;;;;;;;18.23;13.93;;;;;;;17.08;42.32;96968.63;7027649;28;20231;-79
2024/03/03 08:36:06;;;;;;;16.07;12.03;;;;;;;16.72;42.49;96940.19;7028113;28;20210;-79
2024/03/03 08:39:28;;;;;;;16.17;12.70;;;;;;;17.53;41.48;96970.00;7027310;28;20263;-79
2024/03/03 08:42:49;;;;;;;15.47;12.10;;;;;;;17.00;42.22;96927.63;7028019;28;20203;-78
2024/03/03 08:46:12;;;;;;;15.40;12.50;;;;;;;17.36;41.57;96945.94;7027035;28;20287;-78
2024/03/03 08:49:34;;;;;;;15.60;11.73;;;;;;;17.30;41.43;96965.38;7026967;28;20312;-78
2024/03/03 08:52:56;;;;;;;16.73;12.83;;;;;;;17.60;41.27;96960.34;7026892;28;20248;-78
2024/03/03 08:56:17;;;;;;;13.83;11.93;;;;;;;17.68;41.22;96959.69;7033228;28;20269;-79
2024/03/03 08:59:39;;;;;;;12.63;10.87;;;;;;;18.04;40.39;96960.75;7026171;28;20254;-79
2024/03/03 09:03:02;;;;;;;14.10;10.77;;;;;;;18.26;39.68;96943.75;7011315;28;20226;-78
2024/03/03 09:06:23;;;;;;;12.73;10.50;;;;;;;18.34;38.80;96913.13;6998782;28;20727;-78
2024/03/03 09:09:45;;;;;;;13.50;11.03;;;;;;;17.54;40.76;96960.72;6997508;28;20214;-79
2024/03/03 09:13:06;;;;;;;14.70;10.93;;;;;;;18.40;40.05;96950.13;6998190;28;20340;-78
2024/03/03 09:16:28;;;;;;;13.70;10.80;;;;;;;18.14;39.82;96951.59;6998422;28;20285;-79
2024/03/03 09:19:50;;;;;;;12.23;10.30;;;;;;;17.09;41.42;96931.31;6998774;28;20771;-78
2024/03/03 09:23:12;;;;;;;11.87;9.77;;;;;;;18.00;39.77;96942.56;6997901;28;20592;-78
2024/03/03 09:26:33;;;;;;;13.13;10.23;;;;;;;17.31;40.92;96940.56;6998252;28;20628;-78
2024/03/03 09:29:55;;;;;;;12.53;10.37;;;;;;;16.90;42.05;96939.44;6997176;28;20241;-78
2024/03/03 09:33:16;;;;;;;13.60;9.73;;;;;;;17.15;41.04;96930.97;6998241;28;20304;-78
2024/03/03 09:36:42;;;;;;;9.93;8.93;;;;;;;17.00;40.85;96874.00;7021302;28;20359;-79
2024/03/03 09:40:05;;;;;;;10.30;8.90;;;;;;;17.44;40.73;96936.31;7026693;28;20205;-79
2024/03/03 09:43:29;;;;;;;8.93;8.03;;;;;;;17.18;41.16;96937.75;7027300;28;20204;-80
2024/03/03 09:46:51;;;;;;;9.37;7.80;;;;;;;16.60;40.85;96909.88;7028368;28;20292;-79
2024/03/03 09:50:13;;;;;;;9.93;8.37;;;;;;;17.29;40.76;96933.78;7041701;28;20648;-79
2024/03/03 09:53:39;;;;;;;9.67;7.80;;;;;;;18.04;40.24;96930.78;7026793;28;20232;-79
2024/03/03 09:57:01;;;;;;;9.50;7.77;;;;;;;18.69;38.06;96931.56;7027707;28;20217;-79
2024/03/03 10:00:24;;;;;;;12.67;10.30;;;;;;;19.45;37.62;96931.69;7026097;28;20207;-80
2024/03/03 10:03:46;;;;;;;12.63;8.43;;;;;;;19.51;37.33;96922.25;7027861;28;20202;-80
2024/03/03 10:07:08;;;;;;;9.33;7.80;;;;;;;18.88;38.68;96924.09;7028537;28;20313;-80
2024/03/03 10:10:35;;;;;;;8.90;7.97;;;;;;;19.51;36.88;96898.44;7031903;28;20205;-80
2024/03/03 10:13:57;;;;;;;8.57;7.67;;;;;;;18.93;38.41;96911.16;7031116;28;20303;-80
2024/03/03 10:17:18;;;;;;;7.60;6.80;;;;;;;19.41;37.83;96892.41;7029347;28;20241;-80
2024/03/03 10:20:40;;;;;;;8.00;7.20;;;;;;;20.34;36.45;96926.00;7031052;28;20226;-80
2024/03/03 10:24:22;;;;;;;8.63;7.17;;;;;;;20.46;36.21;96915.28;7046158;28;20655;-80
2024/03/03 10:27:46;;;;;;;7.60;6.47;;;;;;;20.62;36.23;96912.94;7051856;28;20546;-80
2024/03/03 10:31:12;;;;;;;7.00;6.30;;;;;;;21.51;35.02;96918.63;7028279;28;20211;-80
2024/03/03 10:34:33;;;;;;;7.90;6.63;;;;;;;21.78;34.52;96904.63;7028724;28;20233;-81
2024/03/03 10:38:01;;;;;;;7.37;6.57;;;;;;;21.95;34.35;96896.41;7028935;28;20721;-81
2024/03/03 10:41:23;;;;;;;7.93;7.13;;;;;;;22.06;34.09;96918.84;7029110;28;20230;-80
2024/03/03 10:44:46;;;;;;;8.40;7.30;;;;;;;21.69;34.46;96912.06;7028262;28;20296;-80
2024/03/03 10:48:08;;;;;;;8.30;7.33;;;;;;;20.99;35.93;96907.03;7025727;28;20739;-80
2024/03/03 10:51:30;;;;;;;7.77;6.93;;;;;;;20.81;36.31;96869.72;7025270;28;20350;-80
2024/03/03 10:54:52;;;;;;;7.90;6.80;;;;;;;21.10;36.17;96897.41;7025361;28;20233;-80
2024/03/03 10:58:14;;;;;;;8.03;6.53;;;;;;;21.23;36.04;96901.94;7025702;28;20317;-79
2024/03/03 11:01:37;;;;;;;7.90;7.10;;;;;;;21.14;36.67;96905.47;7026905;28;20233;-80
2024/03/03 11:05:00;;;;;;;8.80;7.50;;;;;;;21.00;36.94;96901.25;7028819;28;20291;-80
2024/03/03 11:08:23;;;;;;;8.87;7.70;;;;;;;21.21;35.79;96902.25;7025059;28;20303;-81
2024/03/03 11:11:48;;;;;;;7.03;6.33;;;;;;;21.91;34.62;96898.19;7023202;28;20221;-80
2024/03/03 11:15:13;;;;;;;7.17;6.47;;;;;;;22.10;34.56;96887.69;7022714;28;20314;-80
2024/03/03 11:18:37;;;;;;;6.80;6.10;;;;;;;21.25;34.21;96900.50;7024511;28;20777;-81
2024/03/03 11:22:01;;;;;;;4.40;4.00;;;;;;;22.41;31.75;96881.97;7025312;28;20241;-80
2024/03/03 11:25:27;;;;;;;4.17;3.77;;;;;;;22.88;30.32;96878.94;7025239;28;20205;-80
2024/03/03 11:28:52;;;;;;;4.47;4.07;;;;;;;22.51;29.73;96856.94;7023343;28;20224;-80
2024/03/03 11:32:14;;;;;;;3.37;3.03;;;;;;;21.50;30.40;96878.63;7024684;28;20652;-80
2024/03/03 11:35:37;;;;;;;3.37;3.07;;;;;;;21.59;30.98;96870.41;7010547;28;20308;-80
2024/03/03 11:38:59;;;;;;;3.40;3.10;;;;;;;21.97;30.64;96847.50;7027392;28;20262;-80
2024/03/03 11:42:22;;;;;;;4.27;3.27;;;;;;;21.50;31.86;96855.88;7027433;28;20201;-80
2024/03/03 11:45:44;;;;;;;3.30;3.00;;;;;;;20.74;32.75;96845.53;7027382;28;20342;-80
2024/03/03 11:49:06;;;;;;;3.93;3.63;;;;;;;19.60;34.21;96824.72;7025529;28;20755;-80
2024/03/03 11:52:43;;;;;;;3.87;3.57;;;;;;;20.24;33.43;96849.66;7029775;28;20208;-80
2024/03/03 11:56:18;;;;;;;3.83;3.43;;;;;;;20.25;33.80;96843.06;7029453;28;20337;-80
2024/03/03 11:59:44;;;;;;;3.67;3.37;;;;;;;20.50;33.70;96845.09;7019994;28;20220;-80
2024/03/03 12:03:07;;;;;;;3.70;3.40;;;;;;;20.33;34.08;96827.81;7027563;28;20236;-80
2024/03/03 12:06:28;;;;;;;3.60;3.30;;;;;;;20.02;34.81;96841.44;7026120;28;20351;-78
2024/03/03 12:09:51;;;;;;;3.93;3.50;;;;;;;20.58;34.23;96838.06;7025989;28;20697;-80
2024/03/03 12:13:13;;;;;;;3.77;3.47;;;;;;;20.07;34.21;96822.19;7026332;28;20296;-80
2024/03/03 12:16:34;;;;;;;3.40;3.10;;;;;;;20.08;34.41;96825.72;7027276;28;20743;-80
2024/03/03 12:19:57;;;;;;;3.40;3.10;;;;;;;20.64;33.53;96834.06;7029016;28;20684;-80
2024/03/03 12:23:18;;;;;;;4.20;3.80;;;;;;;20.74;33.50;96828.28;7030302;28;20201;-80
2024/03/03 12:26:41;;;;;;;3.60;3.20;;;;;;;20.26;33.27;96817.28;7029321;28;20340;-80
2024/03/03 12:30:09;;;;;;;3.43;2.97;;;;;;;20.96;31.92;96803.56;7028247;28;20246;-80
2024/03/03 12:33:30;;;;;;;3.53;3.23;;;;;;;20.78;32.99;96822.66;7031340;28;20300;-80
2024/03/03 12:36:53;;;;;;;3.40;3.10;;;;;;;20.85;31.82;96819.44;7029924;28;20599;-80
2024/03/03 12:40:15;;;;;;;3.20;2.90;;;;;;;21.47;32.07;96815.38;7030191;28;20687;-80
2024/03/03 12:43:38;;;;;;;3.17;2.97;;;;;;;20.89;31.30;96820.47;7029851;28;20658;-80
2024/03/03 12:46:59;;;;;;;3.40;2.60;;;;;;;21.75;31.07;96803.78;7020382;28;20695;-80
2024/03/03 12:50:21;;;;;;;3.53;2.73;;;;;;;21.13;30.80;96800.84;7000422;28;20237;-80
2024/03/03 12:53:43;;;;;;;2.70;2.50;;;;;;;20.90;30.89;96808.38;7015807;28;20309;-80
2024/03/03 12:57:05;;;;;;;3.00;2.20;;;;;;;20.95;30.17;96801.94;7025053;28;20229;-80
2024/03/03 13:00:28;;;;;;;2.33;2.23;;;;;;;20.76;30.00;96806.88;7021176;28;20625;-80
2024/03/03 13:03:51;;;;;;;2.60;2.33;;;;;;;21.11;29.42;96803.09;7032638;28;20242;-80
2024/03/03 13:07:13;;;;;;;2.20;2.10;;;;;;;21.18;29.25;96794.06;7029086;28;20257;-80
2024/03/03 13:10:35;;;;;;;2.50;2.30;;;;;;;21.92;27.92;96775.50;7021918;28;20343;-80
2024/03/03 13:13:57;;;;;;;2.00;1.90;;;;;;;22.26;26.49;96789.16;7030933;28;20841;-80
2024/03/03 13:17:23;;;;;;;2.07;1.87;;;;;;;22.23;26.56;96796.09;7030651;28;20726;-80
2024/03/03 13:20:45;;;;;;;2.10;1.90;;;;;;;22.45;26.65;96778.59;7029733;28;20220;-79
2024/03/03 13:24:13;;;;;;;1.90;1.80;;;;;;;22.28;25.64;96789.63;7030850;28;20212;-80
2024/03/03 13:27:34;;;;;;;1.90;1.80;;;;;;;22.12;26.09;96789.34;7029319;28;20230;-80
2024/03/03 13:30:58;;;;;;;2.00;1.80;;;;;;;22.24;25.50;96780.44;7030463;28;20232;-80
2024/03/03 13:34:21;;;;;;;2.00;1.90;;;;;;;22.13;25.38;96787.41;7030412;28;20311;-80
2024/03/03 13:37:42;;;;;;;1.53;1.43;;;;;;;22.20;24.25;96782.22;7027912;28;20235;-80
2024/03/03 13:41:04;;;;;;;1.87;1.77;;;;;;;21.71;26.24;96774.59;7029642;28;20673;-80
2024/03/03 13:44:26;;;;;;;1.30;1.30;;;;;;;22.98;23.70;96752.13;7029449;28;20248;-80
2024/03/03 13:47:47;;;;;;;1.67;1.53;;;;;;;22.32;23.59;96785.91;7029436;28;20305;-80
2024/03/03 13:51:10;;;;;;;1.70;1.60;;;;;;;22.43;23.54;96778.91;7038016;28;20711;-79
2024/03/03 13:54:32;;;;;;;1.60;1.50;;;;;;;22.51;23.95;96775.34;7017981;28;20230;-80
2024/03/03 13:57:53;;;;;;;1.80;1.70;;;;;;;23.18;22.02;96770.59;7025435;28;20316;-80
2024/03/03 14:01:15;;;;;;;2.30;1.40;;;;;;;22.64;22.17;96784.47;7024095;28;20623;-80
2024/03/03 14:04:36;;;;;;;1.67;1.57;;;;;;;22.52;22.29;96779.72;7016266;28;20336;-79
2024/03/03 14:07:59;;;;;;;1.93;1.83;;;;;;;22.03;22.81;96783.09;7020255;28;20709;-80
2024/03/03 14:11:21;;;;;;;1.70;1.60;;;;;;;22.91;22.33;96771.09;7016753;28;20355;-80
2024/03/03 14:14:43;;;;;;;1.93;1.83;;;;;;;22.35;22.03;96790.72;7023763;28;20250;-80
2024/03/03 14:18:05;;;;;;;1.50;1.40;;;;;;;22.54;22.18;96785.66;7025553;28;20317;-80
2024/03/03 14:21:26;;;;;;;1.30;1.30;;;;;;;21.96;21.34;96793.72;7006681;28;20368;-80
2024/03/03 14:24:49;;;;;;;1.50;1.40;;;;;;;21.78;21.94;96797.63;6998248;28;20245;-80
2024/03/03 14:28:11;;;;;;;1.80;1.70;;;;;;;21.51;21.90;96802.63;6997263;28;20229;-79
2024/03/03 14:31:33;;;;;;;1.70;1.60;;;;;;;21.69;22.39;96796.84;7020133;28;20299;-80
2024/03/03 14:34:54;;;;;;;1.30;1.20;;;;;;;22.26;22.69;96802.88;7024848;28;20229;-79
2024/03/03 14:38:16;;;;;;;1.67;1.57;;;;;;;22.35;22.40;96803.63;7016881;28;20259;-80
2024/03/03 14:41:39;;;;;;;1.63;1.40;;;;;;;21.86;21.83;96807.81;7003961;28;20312;-80
2024/03/03 14:45:01;;;;;;;1.73;1.37;;;;;;;22.26;22.18;96811.09;7013406;28;20334;-79
2024/03/03 14:48:22;;;;;;;2.20;1.87;;;;;;;21.98;22.34;96744.84;7005795;28;20232;-81
2024/03/03 14:51:44;;;;;;;2.03;1.60;;;;;;;22.56;22.36;96807.31;7024347;28;20205;-80
2024/03/03 14:55:07;;;;;;;1.73;1.60;;;;;;;21.81;22.68;96813.47;7002441;28;20844;-80
2024/03/03 14:58:30;;;;;;;1.47;1.30;;;;;;;22.08;22.52;96801.31;7010259;28;20609;-79
2024/03/03 15:01:52;;;;;;;2.60;1.53;;;;;;;22.31;22.14;96808.19;7003631;28;20233;-80
2024/03/03 15:05:13;;;;;;;2.43;1.80;;;;;;;21.72;22.84;96820.88;7011455;28;20211;-80
2024/03/03 15:08:36;;;;;;;2.57;1.60;;;;;;;22.13;23.16;96814.88;7008769;28;20350;-80
2024/03/03 15:11:57;;;;;;;2.83;1.50;;;;;;;21.78;23.36;96789.41;7016390;28;20621;-80
2024/03/03 15:15:21;;;;;;;1.90;1.80;;;;;;;22.17;23.64;96821.28;7003020;28;20231;-80
2024/03/03 15:18:43;;;;;;;2.40;1.67;;;;;;;22.15;22.97;96824.38;7002705;28;20720;-81
2024/03/03 15:22:05;;;;;;;2.50;1.97;;;;;;;22.12;23.33;96822.28;7005179;28;20211;-79
2024/03/03 15:25:27;;;;;;;1.50;1.40;;;;;;;22.22;23.38;96821.94;7022569;28;20198;-81
2024/03/03 15:28:48;;;;;;;1.80;1.70;;;;;;;21.69;23.81;96816.06;7003925;28;20232;-80
2024/03/03 15:32:11;;;;;;;1.90;1.70;;;;;;;21.96;23.83;96823.13;7011222;28;20737;-80
2024/03/03 15:35:33;;;;;;;1.80;1.70;;;;;;;21.92;24.01;96813.94;7008799;28;20226;-80
2024/03/03 15:38:55;;;;;;;1.70;1.60;;;;;;;22.03;23.75;96810.53;7028094;28;20483;-80
2024/03/03 15:42:16;;;;;;;1.90;1.80;;;;;;;21.69;24.40;96820.72;7013583;28;20288;-80
2024/03/03 15:45:42;;;;;;;2.20;2.00;;;;;;;21.66;23.90;96821.34;7022825;28;20285;-80
2024/03/03 15:49:06;;;;;;;2.30;2.10;;;;;;;21.64;24.77;96818.94;7009362;28;20233;-80
2024/03/03 15:52:28;;;;;;;2.00;1.80;;;;;;;21.58;24.05;96822.97;7012205;28;20681;-81
2024/03/03 15:55:49;;;;;;;2.10;1.90;;;;;;;21.87;24.12;96820.41;7021349;28;20310;-80
2024/03/03 15:59:11;;;;;;;2.50;2.13;;;;;;;21.95;24.27;96819.56;7008263;28;20313;-78
2024/03/03 16:02:32;;;;;;;2.83;1.87;;;;;;;21.74;24.54;96835.09;7023543;28;20397;-80